Time;durP1;ratioP1;P1;durP2;ratioP2;P2;SDS_P1;SDS_P2;PMS_P1;PMS_P2;Temp;Humidity;BMP_temperature;BMP_pressure;BME280_temperature;BME280_humidity;BME280_pressure;Samples;Min_cycle;Max_cycle;Signal;HPM_P1;HPM_P2
2023/05/16 00:01:18;;;;;;;2.53;2.10;;;13.60;99.90;;;;;;5117160;28;20389;-70
2023/05/16 00:03:44;;;;;;;2.10;1.90;;;13.60;99.90;;;;;;5116460;28;20034;-78
2023/05/16 00:06:10;;;;;;;2.30;2.03;;;13.60;99.90;;;;;;5116595;28;20039;-70
2023/05/16 00:08:35;;;;;;;4.25;2.30;;;13.60;99.90;;;;;;5116648;28;20031;-71
2023/05/16 00:11:01;;;;;;;2.70;2.42;;;13.60;99.90;;;;;;5115806;28;20055;-71
2023/05/16 00:13:28;;;;;;;2.67;2.25;;;13.60;99.90;;;;;;5116729;28;20478;-71
2023/05/16 00:15:55;;;;;;;2.63;2.10;;;13.60;99.90;;;;;;5116346;28;20030;-71
2023/05/16 00:18:21;;;;;;;6.25;2.75;;;13.60;99.90;;;;;;5116671;28;20482;-71
2023/05/16 00:20:48;;;;;;;3.20;2.33;;;13.60;99.90;;;;;;5116222;28;20052;-71
2023/05/16 00:23:14;;;;;;;2.50;2.10;;;13.60;99.90;;;;;;5116574;28;20028;-71
2023/05/16 00:25:40;;;;;;;3.10;2.10;;;13.60;99.90;;;;;;5116255;28;20030;-71
2023/05/16 00:28:07;;;;;;;2.45;2.10;;;13.60;99.90;;;;;;5115946;28;20028;-71
2023/05/16 00:30:33;;;;;;;2.78;1.98;;;13.60;99.90;;;;;;5116477;28;20035;-70
2023/05/16 00:32:59;;;;;;;2.92;2.10;;;13.60;99.90;;;;;;5115993;28;20027;-71
2023/05/16 00:35:25;;;;;;;5.18;2.38;;;13.60;99.90;;;;;;5116494;28;20020;-71
2023/05/16 00:37:50;;;;;;;2.08;1.88;;;13.50;99.90;;;;;;5115949;28;20019;-71
2023/05/16 00:40:16;;;;;;;2.83;2.08;;;13.60;99.90;;;;;;5116253;28;20027;-71
2023/05/16 00:42:42;;;;;;;3.05;2.10;;;13.60;99.90;;;;;;5116267;28;20023;-70
2023/05/16 00:45:09;;;;;;;2.45;2.00;;;13.60;99.90;;;;;;5115516;28;20492;-70
2023/05/16 00:47:35;;;;;;;7.05;2.53;;;13.50;99.90;;;;;;5116076;28;20035;-70
2023/05/16 00:50:02;;;;;;;2.58;2.03;;;13.50;99.90;;;;;;5115631;28;20050;-70
2023/05/16 00:52:28;;;;;;;2.33;1.90;;;13.50;99.90;;;;;;5115981;28;20035;-70
2023/05/16 00:54:53;;;;;;;2.33;2.13;;;13.50;99.90;;;;;;5115425;28;20034;-70
2023/05/16 00:57:19;;;;;;;2.58;1.90;;;13.50;99.90;;;;;;5115931;28;20027;-70
2023/05/16 00:59:48;;;;;;;2.47;2.00;;;13.50;99.90;;;;;;5115877;28;20471;-70
2023/05/16 01:02:13;;;;;;;2.70;2.00;;;13.50;99.90;;;;;;5115809;28;20034;-70
2023/05/16 01:04:39;;;;;;;1.90;1.55;;;13.50;99.90;;;;;;5115521;28;20042;-70
2023/05/16 01:07:05;;;;;;;2.90;1.83;;;13.50;99.90;;;;;;5115094;28;20053;-70
2023/05/16 01:09:31;;;;;;;3.78;2.22;;;13.50;99.90;;;;;;5115614;28;20038;-70
2023/05/16 01:12:20;;;;;;;4.32;2.00;;;13.50;99.90;;;;;;5115245;28;20024;-69
2023/05/16 01:15:00;;;;;;;3.88;2.13;;;13.50;99.90;;;;;;5085119;28;20084;-70
2023/05/16 01:17:35;;;;;;;4.28;2.13;;;13.50;99.90;;;;;;5115655;28;20024;-68
2023/05/16 01:20:07;;;;;;;3.72;2.10;;;13.50;99.90;;;;;;5115161;28;20454;-69
2023/05/16 01:22:43;;;;;;;2.25;2.05;;;13.50;99.90;;;;;;5115214;28;20392;-71
2023/05/16 01:25:38;;;;;;;2.30;2.10;;;13.40;99.90;;;;;;5114709;28;20468;-72
2023/05/16 01:28:05;;;;;;;2.50;2.17;;;13.40;99.90;;;;;;5115299;28;20039;-70
2023/05/16 01:30:36;;;;;;;4.10;2.10;;;13.40;99.90;;;;;;5114908;28;20039;-70
2023/05/16 01:33:02;;;;;;;2.25;2.05;;;13.40;99.90;;;;;;5113509;28;20072;-70
2023/05/16 01:35:28;;;;;;;2.85;1.90;;;13.40;99.90;;;;;;5115055;28;20092;-70
2023/05/16 01:38:17;;;;;;;3.72;2.00;;;13.40;99.90;;;;;;5114713;28;20521;-70
2023/05/16 01:41:03;;;;;;;3.28;2.10;;;13.40;99.90;;;;;;5114607;28;20027;-70
2023/05/16 01:43:34;;;;;;;1.88;1.65;;;13.40;99.90;;;;;;5114903;28;20028;-70
2023/05/16 01:46:10;;;;;;;3.15;2.20;;;13.40;99.90;;;;;;5114688;28;20128;-70
2023/05/16 01:48:49;;;;;;;2.40;2.20;;;13.40;99.90;;;;;;5114864;28;20498;-70
2023/05/16 01:51:15;;;;;;;4.63;2.15;;;13.30;99.90;;;;;;5114534;28;20408;-70
2023/05/16 01:53:44;;;;;;;2.72;2.08;;;13.30;99.90;;;;;;5114815;28;20027;-70
2023/05/16 01:56:15;;;;;;;4.25;2.15;;;13.30;99.90;;;;;;5114332;28;20111;-70
2023/05/16 01:58:41;;;;;;;4.15;1.80;;;13.30;99.90;;;;;;5114939;28;20028;-70
2023/05/16 02:01:07;;;;;;;3.28;2.22;;;13.40;99.90;;;;;;5114229;28;20024;-70
2023/05/16 02:03:33;;;;;;;2.70;2.40;;;13.30;99.90;;;;;;5114625;28;20020;-70
2023/05/16 02:05:59;;;;;;;2.20;1.90;;;13.30;99.90;;;;;;5114198;28;20520;-70
2023/05/16 02:08:27;;;;;;;4.50;2.30;;;13.40;99.90;;;;;;5113543;28;20023;-71
2023/05/16 02:10:53;;;;;;;2.45;2.25;;;13.30;99.90;;;;;;5114347;28;20032;-71
2023/05/16 02:13:18;;;;;;;3.95;2.22;;;13.30;99.90;;;;;;5114434;28;20034;-71
2023/05/16 02:15:44;;;;;;;5.18;2.28;;;13.40;99.90;;;;;;5114398;28;20023;-70
2023/05/16 02:18:11;;;;;;;2.38;2.17;;;13.30;99.90;;;;;;5113923;28;20024;-72
2023/05/16 02:20:36;;;;;;;3.00;2.00;;;13.40;99.90;;;;;;5114370;28;20039;-70
2023/05/16 02:23:02;;;;;;;1.98;1.88;;;13.40;99.90;;;;;;5113845;28;20031;-71
2023/05/16 02:25:28;;;;;;;3.45;2.03;;;13.40;99.90;;;;;;5114508;28;20106;-70
2023/05/16 02:27:55;;;;;;;2.63;2.40;;;13.40;99.90;;;;;;5114437;28;20020;-70
2023/05/16 02:30:20;;;;;;;2.30;2.10;;;13.40;99.90;;;;;;5113904;28;20031;-70
2023/05/16 02:32:47;;;;;;;3.97;2.20;;;13.40;99.90;;;;;;5113755;28;20098;-70
2023/05/16 02:35:13;;;;;;;6.28;2.33;;;13.40;99.90;;;;;;5113549;28;20081;-69
2023/05/16 02:37:41;;;;;;;2.40;2.20;;;13.40;99.90;;;;;;5113701;28;20028;-70
2023/05/16 02:40:07;;;;;;;2.67;2.20;;;13.40;99.90;;;;;;5113472;28;20032;-70
2023/05/16 02:42:33;;;;;;;2.95;2.30;;;13.40;99.90;;;;;;5113909;28;20115;-70
2023/05/16 02:44:59;;;;;;;2.88;2.58;;;13.40;99.90;;;;;;5113323;28;20120;-70
2023/05/16 02:47:25;;;;;;;4.55;2.35;;;13.40;99.90;;;;;;5113818;28;20031;-70
2023/05/16 02:49:53;;;;;;;3.55;2.15;;;13.50;99.90;;;;;;5113737;28;20035;-69
2023/05/16 02:52:19;;;;;;;3.38;2.00;;;13.50;99.90;;;;;;5113067;28;20034;-70
2023/05/16 02:54:45;;;;;;;2.90;2.35;;;13.40;99.90;;;;;;5113673;28;20371;-70
2023/05/16 02:57:11;;;;;;;2.58;2.38;;;13.40;99.90;;;;;;5113295;28;20111;-69
2023/05/16 02:59:37;;;;;;;2.58;2.10;;;13.40;99.90;;;;;;5113288;28;20395;-71
2023/05/16 03:02:02;;;;;;;2.55;2.20;;;13.40;99.90;;;;;;5112921;28;20020;-69
2023/05/16 03:04:28;;;;;;;2.50;2.30;;;13.40;99.90;;;;;;5113065;28;20076;-69
2023/05/16 03:06:54;;;;;;;2.47;2.20;;;13.40;99.90;;;;;;5113396;28;20027;-69
2023/05/16 03:09:20;;;;;;;2.75;2.28;;;13.30;99.90;;;;;;5113013;28;20087;-69
2023/05/16 03:11:46;;;;;;;3.90;2.30;;;13.40;99.90;;;;;;5113621;28;20424;-70
2023/05/16 03:14:11;;;;;;;2.80;2.38;;;13.40;99.90;;;;;;5113032;28;20027;-70
2023/05/16 03:16:38;;;;;;;2.88;2.35;;;13.40;99.90;;;;;;5113471;28;20031;-70
2023/05/16 03:19:04;;;;;;;3.42;2.20;;;13.40;99.90;;;;;;5111760;28;20034;-71
2023/05/16 03:21:30;;;;;;;3.63;2.58;;;13.40;99.90;;;;;;5113011;28;20020;-70
2023/05/16 03:23:57;;;;;;;4.68;2.35;;;13.40;99.90;;;;;;5113250;28;20032;-71
2023/05/16 03:26:23;;;;;;;2.40;2.15;;;13.40;99.90;;;;;;5112905;28;20052;-71
2023/05/16 03:28:50;;;;;;;7.25;2.70;;;13.40;99.90;;;;;;5112871;28;20480;-69
2023/05/16 03:31:15;;;;;;;3.33;2.63;;;13.40;99.90;;;;;;5112834;28;20114;-71
2023/05/16 03:33:41;;;;;;;3.47;2.35;;;13.50;99.90;;;;;;5113089;28;20110;-69
2023/05/16 03:36:07;;;;;;;2.90;2.35;;;13.50;99.90;;;;;;5113079;28;20487;-71
2023/05/16 03:38:33;;;;;;;6.03;2.60;;;13.50;99.90;;;;;;5112285;28;20395;-71
2023/05/16 03:40:58;;;;;;;4.63;2.60;;;13.50;99.90;;;;;;5113192;28;20032;-71
2023/05/16 03:43:24;;;;;;;5.97;2.58;;;13.50;99.90;;;;;;5112410;28;20042;-71
2023/05/16 03:45:49;;;;;;;3.97;2.90;;;13.50;99.90;;;;;;5112713;28;20100;-71
2023/05/16 03:48:15;;;;;;;2.60;2.40;;;13.50;99.90;;;;;;5112896;28;20073;-71
2023/05/16 03:50:41;;;;;;;2.50;2.05;;;13.50;99.90;;;;;;5113165;28;20050;-70
2023/05/16 03:53:07;;;;;;;5.38;2.47;;;13.60;99.90;;;;;;5112699;28;20475;-71
2023/05/16 03:55:33;;;;;;;3.03;2.35;;;13.60;99.90;;;;;;5113229;28;20111;-70
2023/05/16 03:57:59;;;;;;;3.22;2.60;;;13.60;99.90;;;;;;5113008;28;20102;-70
2023/05/16 04:00:25;;;;;;;4.28;2.85;;;13.60;99.90;;;;;;5113072;28;20116;-70
2023/05/16 04:02:51;;;;;;;3.03;2.50;;;13.60;99.90;;;;;;5114861;28;20058;-70
2023/05/16 04:05:17;;;;;;;2.58;2.10;;;13.60;99.90;;;;;;5113129;28;20076;-70
2023/05/16 04:07:42;;;;;;;3.00;2.45;;;13.70;99.90;;;;;;5113768;28;20039;-70
2023/05/16 04:10:09;;;;;;;2.88;2.60;;;13.70;99.90;;;;;;5112267;28;20032;-71
2023/05/16 04:12:34;;;;;;;4.63;2.90;;;13.70;99.90;;;;;;5112388;28;20093;-70
2023/05/16 04:15:02;;;;;;;3.33;2.42;;;13.70;99.90;;;;;;5112755;28;20019;-70
2023/05/16 04:17:27;;;;;;;2.55;2.35;;;13.70;99.90;;;;;;5111682;28;20030;-70
2023/05/16 04:19:53;;;;;;;4.60;2.67;;;13.70;99.90;;;;;;5112441;28;20495;-70
2023/05/16 04:22:20;;;;;;;4.05;2.60;;;13.70;99.90;;;;;;5112272;28;20015;-70
2023/05/16 04:24:46;;;;;;;7.47;2.75;;;13.80;99.90;;;;;;5112623;28;20028;-70
2023/05/16 04:27:11;;;;;;;2.70;2.40;;;13.80;99.90;;;;;;5110809;28;20031;-70
2023/05/16 04:29:37;;;;;;;3.38;2.10;;;13.80;99.90;;;;;;5112519;28;20111;-70
2023/05/16 04:32:03;;;;;;;3.63;2.80;;;13.80;99.90;;;;;;5116169;28;20118;-70
2023/05/16 04:34:29;;;;;;;5.38;2.60;;;13.80;99.90;;;;;;5116223;28;20027;-70
2023/05/16 04:36:55;;;;;;;2.60;2.40;;;13.80;99.90;;;;;;5116248;28;20024;-70
2023/05/16 04:39:21;;;;;;;2.90;2.60;;;13.90;99.90;;;;;;5115889;28;20024;-70
2023/05/16 04:41:46;;;;;;;4.95;2.50;;;13.90;99.90;;;;;;5114913;28;20156;-71
2023/05/16 04:44:12;;;;;;;6.18;3.20;;;14.00;99.90;;;;;;5115497;28;20102;-70
2023/05/16 04:46:38;;;;;;;5.95;2.90;;;14.00;99.90;;;;;;5116223;28;20035;-70
2023/05/16 04:49:03;;;;;;;3.58;2.67;;;14.10;99.90;;;;;;5115943;28;20027;-70
2023/05/16 04:51:31;;;;;;;3.90;3.10;;;14.10;99.90;;;;;;5115977;28;20035;-70
2023/05/16 04:53:57;;;;;;;3.67;2.72;;;14.20;99.90;;;;;;5114828;28;20104;-70
2023/05/16 04:56:22;;;;;;;5.65;2.70;;;14.20;99.90;;;;;;5115537;28;20497;-70
2023/05/16 04:58:48;;;;;;;4.25;2.75;;;14.20;99.90;;;;;;5115911;28;20024;-70
2023/05/16 05:01:13;;;;;;;4.13;2.88;;;14.20;99.90;;;;;;5115212;28;20016;-70
2023/05/16 05:03:39;;;;;;;4.70;2.92;;;14.20;99.90;;;;;;5115718;28;20060;-71
2023/05/16 05:06:05;;;;;;;5.13;2.97;;;14.20;99.90;;;;;;5115760;28;20024;-69
2023/05/16 05:08:30;;;;;;;4.38;2.80;;;14.20;99.90;;;;;;5115186;28;20027;-71
2023/05/16 05:10:56;;;;;;;7.28;3.05;;;14.10;99.90;;;;;;5115253;28;20020;-69
2023/05/16 05:13:22;;;;;;;5.90;3.00;;;14.10;99.90;;;;;;5114815;28;20050;-70
2023/05/16 05:15:49;;;;;;;4.20;3.20;;;14.10;99.90;;;;;;5114974;28;20036;-69
2023/05/16 05:18:15;;;;;;;5.15;3.30;;;14.10;99.90;;;;;;5115265;28;20027;-71
2023/05/16 05:20:40;;;;;;;4.07;3.03;;;14.10;99.90;;;;;;5115553;28;20479;-70
2023/05/16 05:23:06;;;;;;;4.03;3.15;;;14.10;99.90;;;;;;5115334;28;20023;-71
2023/05/16 05:25:34;;;;;;;3.50;3.03;;;14.20;99.90;;;;;;5115420;28;20228;-71
2023/05/16 05:28:00;;;;;;;4.28;3.35;;;14.20;99.90;;;;;;5114934;28;20043;-69
2023/05/16 05:30:25;;;;;;;6.38;4.13;;;14.20;99.90;;;;;;5114633;28;20032;-70
2023/05/16 05:32:52;;;;;;;3.97;3.05;;;14.20;99.90;;;;;;5115106;28;20145;-71
2023/05/16 05:35:18;;;;;;;4.82;3.55;;;14.30;99.90;;;;;;5112216;28;20409;-71
2023/05/16 05:37:43;;;;;;;9.45;3.38;;;14.40;99.90;;;;;;5114789;28;20028;-71
2023/05/16 05:40:09;;;;;;;4.43;3.50;;;14.40;99.90;;;;;;5114661;28;20023;-72
2023/05/16 05:42:35;;;;;;;5.35;3.65;;;14.40;99.90;;;;;;5113825;28;20035;-71
2023/05/16 05:45:01;;;;;;;7.97;4.15;;;14.50;99.90;;;;;;5114934;28;20051;-70
2023/05/16 05:47:26;;;;;;;6.63;3.97;;;14.40;99.90;;;;;;5114564;28;20059;-71
2023/05/16 05:49:52;;;;;;;10.10;4.43;;;14.50;99.90;;;;;;5114947;28;20074;-69
2023/05/16 05:52:18;;;;;;;6.13;3.90;;;14.50;99.90;;;;;;5114452;28;20431;-70
2023/05/16 05:54:43;;;;;;;6.82;3.60;;;14.50;99.90;;;;;;5114803;28;20024;-71
2023/05/16 05:57:09;;;;;;;5.97;3.90;;;14.60;99.90;;;;;;5114773;28;20047;-70
2023/05/16 05:59:34;;;;;;;4.05;3.08;;;14.60;99.90;;;;;;5114967;28;20066;-70
2023/05/16 06:02:00;;;;;;;3.88;3.08;;;14.60;99.90;;;;;;5114553;28;20023;-70
2023/05/16 06:04:26;;;;;;;6.22;3.65;;;14.70;99.90;;;;;;5113712;28;20020;-70
2023/05/16 06:06:52;;;;;;;4.45;3.33;;;14.60;99.90;;;;;;5114610;28;20027;-70
2023/05/16 06:09:17;;;;;;;4.57;3.53;;;14.60;99.90;;;;;;5114268;28;20044;-70
2023/05/16 06:11:44;;;;;;;4.55;3.30;;;14.70;99.90;;;;;;5114486;28;20430;-71
2023/05/16 06:14:10;;;;;;;8.02;3.53;;;14.70;99.90;;;;;;5114355;28;20027;-70
2023/05/16 06:16:38;;;;;;;9.32;3.38;;;14.80;99.90;;;;;;5114290;28;20032;-70
2023/05/16 06:19:04;;;;;;;4.32;3.72;;;14.80;99.90;;;;;;5114257;28;20019;-70
2023/05/16 06:21:30;;;;;;;3.63;3.22;;;14.80;99.90;;;;;;5113657;28;20104;-70
2023/05/16 06:23:55;;;;;;;3.53;3.15;;;14.80;99.90;;;;;;5114194;28;20023;-71
2023/05/16 06:26:21;;;;;;;5.53;3.47;;;14.90;99.60;;;;;;5113722;28;20023;-70
2023/05/16 06:28:47;;;;;;;4.70;3.38;;;14.90;99.50;;;;;;5113951;28;20036;-70
2023/05/16 06:31:12;;;;;;;4.22;3.05;;;14.90;99.40;;;;;;5113604;28;20048;-73
2023/05/16 06:33:38;;;;;;;4.20;3.13;;;15.00;98.70;;;;;;5113909;28;20024;-70
2023/05/16 06:36:04;;;;;;;4.72;3.05;;;15.00;98.50;;;;;;5113984;28;20379;-70
2023/05/16 06:38:30;;;;;;;4.35;3.33;;;15.00;98.60;;;;;;5113083;28;20032;-70
2023/05/16 06:40:55;;;;;;;5.03;3.00;;;15.00;98.80;;;;;;5113729;28;20030;-69
2023/05/16 06:43:21;;;;;;;6.18;3.22;;;15.10;98.70;;;;;;5113204;28;20136;-71
2023/05/16 06:45:46;;;;;;;3.70;3.17;;;15.10;98.60;;;;;;5113553;28;20056;-71
2023/05/16 06:48:14;;;;;;;6.95;3.10;;;15.10;98.50;;;;;;5113449;28;20527;-69
2023/05/16 06:50:39;;;;;;;5.00;3.00;;;15.10;98.20;;;;;;5113411;28;20074;-70
2023/05/16 06:53:06;;;;;;;3.40;3.10;;;15.20;98.30;;;;;;5113739;28;20059;-70
2023/05/16 06:55:32;;;;;;;4.88;2.88;;;15.20;98.30;;;;;;5112993;28;20019;-70
2023/05/16 06:57:58;;;;;;;8.13;3.50;;;15.20;97.80;;;;;;5113336;28;20028;-70
2023/05/16 07:00:24;;;;;;;5.20;3.10;;;15.30;97.50;;;;;;5112683;28;20036;-70
2023/05/16 07:02:49;;;;;;;3.22;2.92;;;15.30;97.30;;;;;;5113613;28;20058;-70
2023/05/16 07:05:15;;;;;;;4.28;3.35;;;15.30;97.20;;;;;;5112785;28;20462;-75
2023/05/16 07:07:40;;;;;;;3.55;3.20;;;15.40;97.50;;;;;;5113353;28;20024;-70
2023/05/16 07:10:06;;;;;;;3.88;3.13;;;15.40;97.80;;;;;;5113196;28;20069;-70
2023/05/16 07:12:32;;;;;;;6.70;3.33;;;15.50;98.00;;;;;;5112534;28;20027;-70
2023/05/16 07:14:58;;;;;;;3.33;2.97;;;15.50;98.20;;;;;;5113235;28;20028;-70
2023/05/16 07:17:24;;;;;;;3.88;3.03;;;15.50;97.80;;;;;;5112821;28;20050;-69
2023/05/16 07:19:49;;;;;;;3.53;3.22;;;15.50;98.00;;;;;;5112875;28;20468;-71
2023/05/16 07:22:15;;;;;;;6.38;3.80;;;15.60;98.00;;;;;;5113240;28;20035;-70
2023/05/16 07:24:41;;;;;;;5.22;3.40;;;15.60;97.60;;;;;;5112626;28;20035;-69
2023/05/16 07:27:06;;;;;;;8.05;4.15;;;15.60;97.50;;;;;;5113029;28;20031;-70
2023/05/16 07:29:32;;;;;;;5.60;3.67;;;15.60;97.60;;;;;;5112581;28;20040;-70
2023/05/16 07:31:58;;;;;;;3.88;3.47;;;15.60;97.80;;;;;;5113309;28;20028;-70
2023/05/16 07:34:23;;;;;;;4.88;3.40;;;15.60;97.40;;;;;;5112561;28;20032;-71
2023/05/16 07:36:49;;;;;;;5.15;3.97;;;15.60;97.00;;;;;;5112623;28;20019;-72
2023/05/16 07:39:15;;;;;;;8.00;3.75;;;15.60;97.10;;;;;;5112928;28;20035;-71
2023/05/16 07:41:41;;;;;;;9.63;4.30;;;15.60;97.30;;;;;;5112552;28;20072;-70
2023/05/16 07:44:06;;;;;;;8.77;4.20;;;15.60;97.30;;;;;;5113055;28;20031;-70
2023/05/16 07:46:32;;;;;;;5.90;3.40;;;15.50;97.20;;;;;;5114700;28;20046;-71
2023/05/16 07:48:58;;;;;;;7.30;3.92;;;15.50;97.10;;;;;;5115348;28;20023;-70
2023/05/16 07:51:23;;;;;;;4.97;3.75;;;15.50;97.10;;;;;;5114827;28;20479;-70
2023/05/16 07:53:49;;;;;;;6.95;3.85;;;15.50;97.20;;;;;;5114925;28;20059;-70
2023/05/16 07:56:15;;;;;;;5.20;3.72;;;15.50;97.10;;;;;;5114981;28;20383;-70
2023/05/16 07:58:41;;;;;;;7.05;3.80;;;15.50;96.70;;;;;;5112668;28;20035;-70
2023/05/16 08:01:06;;;;;;;5.55;3.88;;;15.50;96.20;;;;;;5109445;28;20024;-70
2023/05/16 08:03:32;;;;;;;7.85;4.93;;;15.50;96.40;;;;;;5111988;28;20119;-70
2023/05/16 08:05:57;;;;;;;5.90;4.18;;;15.50;96.70;;;;;;5114230;28;20027;-70
2023/05/16 08:08:23;;;;;;;4.82;4.25;;;15.40;96.70;;;;;;5115881;28;20107;-70
2023/05/16 08:10:49;;;;;;;7.88;5.72;;;15.40;97.10;;;;;;5116608;28;20102;-70
2023/05/16 08:13:14;;;;;;;5.75;4.05;;;15.40;97.80;;;;;;5116604;28;20039;-71
2023/05/16 08:15:40;;;;;;;6.75;4.40;;;15.40;98.40;;;;;;5116049;28;20353;-70
2023/05/16 08:18:13;;;;;;;6.72;4.50;;;15.40;99.10;;;;;;5116546;28;20151;-70
2023/05/16 08:20:40;;;;;;;8.93;4.20;;;15.40;99.50;;;;;;5116242;28;20039;-70
2023/05/16 08:23:06;;;;;;;5.20;4.22;;;15.40;99.90;;;;;;5115424;28;20076;-70
2023/05/16 08:25:32;;;;;;;8.43;4.18;;;15.40;99.90;;;;;;5115993;28;20032;-70
2023/05/16 08:27:57;;;;;;;5.78;4.38;;;15.40;99.90;;;;;;5116173;28;20118;-69
2023/05/16 08:30:24;;;;;;;7.00;4.75;;;15.40;99.90;;;;;;5115778;28;20552;-70
2023/05/16 08:32:50;;;;;;;11.93;4.65;;;15.40;99.90;;;;;;5116375;28;20028;-70
2023/05/16 08:35:16;;;;;;;6.95;5.30;;;15.40;99.90;;;;;;5115994;28;20079;-70
2023/05/16 08:37:41;;;;;;;7.90;4.80;;;15.40;99.90;;;;;;5115938;28;20023;-70
2023/05/16 08:40:09;;;;;;;8.18;4.97;;;15.40;99.90;;;;;;5116199;28;20039;-70
2023/05/16 08:42:36;;;;;;;7.65;5.35;;;15.30;99.90;;;;;;5115755;28;20073;-70
2023/05/16 08:45:02;;;;;;;5.65;4.95;;;15.30;99.90;;;;;;5115733;28;20060;-69
2023/05/16 08:47:30;;;;;;;7.53;5.25;;;15.30;99.90;;;;;;5115718;28;20024;-70
2023/05/16 08:49:57;;;;;;;7.53;5.60;;;15.20;99.90;;;;;;5116136;28;20032;-70
2023/05/16 08:52:29;;;;;;;11.75;5.22;;;15.20;99.90;;;;;;5115638;28;20035;-70
2023/05/16 08:55:00;;;;;;;8.40;5.28;;;15.10;99.90;;;;;;5116036;28;20107;-69
2023/05/16 08:57:27;;;;;;;8.07;6.25;;;15.10;99.90;;;;;;5115789;28;20045;-71
2023/05/16 08:59:56;;;;;;;7.55;5.82;;;14.90;99.90;;;;;;5115936;28;20035;-70
2023/05/16 09:02:22;;;;;;;9.82;6.00;;;14.90;99.90;;;;;;5115572;28;20038;-71
2023/05/16 09:04:48;;;;;;;7.78;5.72;;;14.90;99.90;;;;;;5115057;28;20023;-70
2023/05/16 09:07:14;;;;;;;11.82;6.60;;;14.90;99.90;;;;;;5115420;28;20362;-70
2023/05/16 09:09:41;;;;;;;8.13;5.82;;;14.90;99.90;;;;;;5115171;28;20039;-70
2023/05/16 09:12:07;;;;;;;10.70;5.65;;;14.90;99.90;;;;;;5115765;28;20028;-70
2023/05/16 09:14:33;;;;;;;8.43;6.45;;;14.90;99.90;;;;;;5115126;28;20027;-70
2023/05/16 09:17:06;;;;;;;11.02;6.47;;;14.90;99.90;;;;;;5115657;28;20024;-70
2023/05/16 09:19:42;;;;;;;10.30;7.28;;;14.90;99.90;;;;;;5114987;28;20023;-69
2023/05/16 09:22:10;;;;;;;8.00;7.07;;;14.90;99.90;;;;;;5115185;28;20034;-70
2023/05/16 09:24:43;;;;;;;11.15;6.50;;;14.80;99.90;;;;;;5115003;28;20098;-70
2023/05/16 09:27:13;;;;;;;8.75;6.13;;;14.80;99.90;;;;;;5115056;27;20062;-70
2023/05/16 09:29:40;;;;;;;8.90;6.05;;;14.80;99.90;;;;;;5114773;28;20369;-69
2023/05/16 09:32:13;;;;;;;7.20;6.50;;;14.70;99.90;;;;;;5115370;28;20395;-69
2023/05/16 09:34:43;;;;;;;9.13;7.03;;;14.70;99.90;;;;;;5115049;28;20028;-70
2023/05/16 09:37:10;;;;;;;8.68;6.88;;;14.50;99.90;;;;;;5115252;28;20051;-70
2023/05/16 09:39:36;;;;;;;10.50;7.50;;;14.40;99.90;;;;;;5114713;28;20039;-71
2023/05/16 09:42:02;;;;;;;10.77;7.43;;;14.40;99.90;;;;;;5114595;28;20019;-70
2023/05/16 09:44:28;;;;;;;10.32;7.68;;;14.30;99.90;;;;;;5114538;28;20054;-71
2023/05/16 09:46:54;;;;;;;10.45;8.40;;;14.30;99.90;;;;;;5113781;28;20032;-70
2023/05/16 09:49:20;;;;;;;10.18;6.78;;;14.20;99.90;;;;;;5113561;28;20091;-70
2023/05/16 09:51:46;;;;;;;8.48;7.13;;;14.20;99.90;;;;;;5114455;28;20031;-69
2023/05/16 09:54:12;;;;;;;13.07;7.90;;;14.20;99.90;;;;;;5115026;28;20023;-70
2023/05/16 09:56:55;;;;;;;12.93;7.45;;;14.20;99.90;;;;;;5114579;28;20020;-70
2023/05/16 09:59:21;;;;;;;8.07;6.88;;;14.20;99.90;;;;;;5114808;28;20471;-70
2023/05/16 10:01:49;;;;;;;8.98;7.13;;;14.20;99.90;;;;;;5114509;28;20103;-69
2023/05/16 10:04:15;;;;;;;9.07;7.00;;;14.30;99.90;;;;;;5115351;28;20055;-71
2023/05/16 10:06:42;;;;;;;10.93;7.35;;;14.20;99.90;;;;;;5116950;28;20092;-70
2023/05/16 10:09:11;;;;;;;9.57;7.57;;;14.20;99.90;;;;;;5116016;28;20165;-70
2023/05/16 10:11:40;;;;;;;11.80;7.88;;;14.20;99.90;;;;;;5115257;28;20019;-71
2023/05/16 10:14:06;;;;;;;14.88;8.30;;;14.30;99.90;;;;;;5114088;28;20468;-71
2023/05/16 10:16:33;;;;;;;13.18;7.88;;;14.30;99.90;;;;;;5113871;28;20424;-71
2023/05/16 10:19:01;;;;;;;10.57;8.38;;;14.30;99.90;;;;;;5113943;28;20091;-70
2023/05/16 10:21:28;;;;;;;14.13;9.80;;;14.30;99.90;;;;;;5114154;28;20410;-70
2023/05/16 10:23:57;;;;;;;11.85;8.43;;;14.40;99.90;;;;;;5114215;28;20027;-70
2023/05/16 10:26:23;;;;;;;9.43;8.35;;;14.30;99.90;;;;;;5113962;28;20073;-70
2023/05/16 10:28:50;;;;;;;11.80;8.80;;;14.40;99.90;;;;;;5113015;28;20032;-70
2023/05/16 10:31:16;;;;;;;12.55;9.00;;;14.30;99.90;;;;;;5113977;28;20460;-71
2023/05/16 10:33:42;;;;;;;10.10;8.15;;;14.30;99.90;;;;;;5113151;28;20019;-70
2023/05/16 10:36:11;;;;;;;10.30;8.35;;;14.40;99.90;;;;;;5113846;28;20019;-70
2023/05/16 10:38:37;;;;;;;10.98;9.35;;;14.30;99.90;;;;;;5113513;28;20073;-69
2023/05/16 10:41:04;;;;;;;11.38;9.55;;;14.30;99.90;;;;;;5113736;28;20065;-70
2023/05/16 10:43:31;;;;;;;11.63;9.05;;;14.40;99.90;;;;;;5113547;28;20035;-78
2023/05/16 10:46:01;;;;;;;9.63;8.65;;;14.40;99.90;;;;;;5113296;28;20131;-70
2023/05/16 10:48:32;;;;;;;12.60;9.70;;;14.30;99.90;;;;;;5113738;28;20024;-70
2023/05/16 10:50:58;;;;;;;12.25;9.85;;;14.30;99.90;;;;;;5113754;28;20043;-70
2023/05/16 10:53:27;;;;;;;10.20;9.20;;;14.30;99.90;;;;;;5112489;28;20043;-70
2023/05/16 10:55:58;;;;;;;10.68;9.18;;;14.20;99.90;;;;;;5111815;28;20027;-70
2023/05/16 10:58:30;;;;;;;12.93;9.20;;;14.20;99.90;;;;;;5113407;28;20024;-70
2023/05/16 11:01:31;;;;;;;13.20;9.43;;;14.20;99.90;;;;;;5112907;28;20024;-70
2023/05/16 11:03:59;;;;;;;11.07;9.60;;;14.20;99.90;;;;;;5049853;28;20059;-70
2023/05/16 11:06:31;;;;;;;11.65;10.32;;;14.20;99.90;;;;;;5101340;28;20028;-69
2023/05/16 11:09:09;;;;;;;12.45;10.63;;;14.20;99.90;;;;;;5113360;28;20479;-71
2023/05/16 11:11:42;;;;;;;15.77;11.63;;;14.20;99.90;;;;;;5113062;28;20023;-69
2023/05/16 11:14:08;;;;;;;13.18;10.77;;;14.20;99.90;;;;;;5113530;28;20055;-69
2023/05/16 11:16:35;;;;;;;12.45;10.15;;;14.10;99.90;;;;;;5112985;28;20020;-71
2023/05/16 11:19:05;;;;;;;13.15;10.82;;;14.10;99.90;;;;;;5113559;28;20095;-69
2023/05/16 11:22:06;;;;;;;11.63;10.43;;;14.10;99.90;;;;;;5112848;28;20609;-69
2023/05/16 11:24:34;;;;;;;15.57;10.40;;;14.10;99.90;;;;;;5113325;28;20031;-70
2023/05/16 11:27:00;;;;;;;15.07;11.38;;;14.00;99.90;;;;;;5113215;28;20064;-70
2023/05/16 11:29:28;;;;;;;17.25;11.70;;;14.00;99.90;;;;;;5113101;28;20084;-70
2023/05/16 11:31:53;;;;;;;11.57;9.98;;;14.00;99.90;;;;;;5112486;28;20063;-70
2023/05/16 11:34:19;;;;;;;11.80;10.60;;;13.90;99.90;;;;;;5113181;28;20446;-70
2023/05/16 11:36:45;;;;;;;12.20;10.60;;;13.90;99.90;;;;;;5112399;28;20035;-70
2023/05/16 11:39:11;;;;;;;14.95;10.82;;;13.90;99.90;;;;;;5113039;28;20024;-70
2023/05/16 11:41:37;;;;;;;14.88;11.50;;;13.90;99.90;;;;;;5115775;28;20451;-70
2023/05/16 11:44:05;;;;;;;13.05;10.75;;;13.90;99.90;;;;;;5117301;28;20027;-70
2023/05/16 11:46:33;;;;;;;13.38;11.23;;;13.90;99.90;;;;;;5117274;28;20051;-70
2023/05/16 11:48:59;;;;;;;13.38;11.35;;;13.90;99.90;;;;;;5116564;28;20071;-71
2023/05/16 11:51:24;;;;;;;12.57;11.27;;;14.00;99.90;;;;;;5116920;28;20080;-70
2023/05/16 11:53:50;;;;;;;13.05;11.13;;;13.90;99.90;;;;;;5116809;28;20023;-70
2023/05/16 11:56:17;;;;;;;13.73;11.45;;;13.90;99.90;;;;;;5116689;28;20030;-70
2023/05/16 11:58:43;;;;;;;12.40;11.00;;;13.90;99.90;;;;;;5116580;28;20084;-70
2023/05/16 12:01:10;;;;;;;14.32;10.55;;;13.90;99.90;;;;;;5117015;28;20024;-70
2023/05/16 12:03:37;;;;;;;12.57;9.20;;;14.00;99.90;;;;;;5116956;28;20532;-70
2023/05/16 12:06:03;;;;;;;10.95;9.85;;;14.00;99.90;;;;;;5116891;28;20106;-70
2023/05/16 12:08:29;;;;;;;12.65;10.38;;;14.00;99.90;;;;;;5116893;28;20103;-69
2023/05/16 12:10:55;;;;;;;12.73;10.52;;;14.00;99.90;;;;;;5116324;28;20071;-69
2023/05/16 12:13:22;;;;;;;14.45;10.65;;;14.00;99.90;;;;;;5116825;28;20062;-70
2023/05/16 12:15:49;;;;;;;12.98;10.82;;;14.00;99.90;;;;;;5116361;28;20055;-70
2023/05/16 12:18:15;;;;;;;12.57;11.10;;;14.10;99.90;;;;;;5116408;28;20081;-70
2023/05/16 12:20:43;;;;;;;13.43;9.73;;;14.10;99.90;;;;;;5116230;28;20035;-69
2023/05/16 12:23:12;;;;;;;12.15;10.13;;;14.20;99.90;;;;;;5116529;28;20032;-69
2023/05/16 12:25:44;;;;;;;10.80;9.68;;;14.20;99.90;;;;;;5116322;28;20023;-72
2023/05/16 12:28:12;;;;;;;10.18;9.18;;;14.30;99.90;;;;;;5116761;28;20426;-69
2023/05/16 12:30:41;;;;;;;9.75;8.75;;;14.30;99.90;;;;;;5116434;28;20032;-70
2023/05/16 12:33:09;;;;;;;10.80;9.70;;;14.40;99.90;;;;;;5116475;28;20046;-70
2023/05/16 12:35:38;;;;;;;11.00;9.30;;;14.40;99.90;;;;;;5116339;28;20026;-69
2023/05/16 12:38:08;;;;;;;10.20;8.75;;;14.50;99.90;;;;;;5116341;28;20425;-71
2023/05/16 12:40:36;;;;;;;15.52;8.57;;;14.50;99.90;;;;;;5116373;28;20034;-70
2023/05/16 12:43:01;;;;;;;9.27;8.38;;;14.60;99.90;;;;;;5116181;28;20028;-69